Time;durP1;ratioP1;P1;durP2;ratioP2;P2;SDS_P1;SDS_P2;PMS_P1;PMS_P2;Temp;Humidity;BMP_temperature;BMP_pressure;BME280_temperature;BME280_humidity;BME280_pressure;Samples;Min_cycle;Max_cycle;Signal;HPM_P1;HPM_P2
2020/12/16 00:02:01;;;;;;;30.77;5.70;;;5.60;92.50;;;;;;5076488;28;20498;-78
2020/12/16 00:04:27;;;;;;;56.35;6.35;;;5.60;92.60;;;;;;5043049;28;20035;-78
2020/12/16 00:06:53;;;;;;;51.28;6.13;;;5.60;92.60;;;;;;5076387;28;20089;-79
2020/12/16 00:09:18;;;;;;;26.38;5.90;;;5.60;92.60;;;;;;5094370;28;20392;-78
2020/12/16 00:11:44;;;;;;;38.83;5.60;;;5.60;92.50;;;;;;5059173;28;20138;-78
2020/12/16 00:14:09;;;;;;;10.60;5.40;;;5.50;92.40;;;;;;5056229;28;20540;-78
2020/12/16 00:16:35;;;;;;;9.38;5.25;;;5.50;92.40;;;;;;5075462;28;20480;-78
2020/12/16 00:19:01;;;;;;;7.13;5.68;;;5.50;92.40;;;;;;5075619;28;20047;-78
2020/12/16 00:21:26;;;;;;;7.45;5.85;;;5.50;92.50;;;;;;5055610;28;20082;-78
2020/12/16 00:23:52;;;;;;;6.40;5.38;;;5.40;92.50;;;;;;5095049;28;20090;-78
2020/12/16 00:26:18;;;;;;;9.30;5.95;;;5.40;92.50;;;;;;5075817;28;20111;-78
2020/12/16 00:28:43;;;;;;;7.72;5.50;;;5.40;92.50;;;;;;5092208;28;20028;-74
2020/12/16 00:31:12;;;;;;;9.43;5.28;;;5.40;92.50;;;;;;5073503;28;20031;-73
2020/12/16 00:33:37;;;;;;;7.90;5.85;;;5.40;92.50;;;;;;5073897;28;20054;-73
2020/12/16 00:36:03;;;;;;;18.92;6.07;;;5.40;92.50;;;;;;5091662;28;20086;-74
2020/12/16 00:38:29;;;;;;;7.97;6.05;;;5.40;92.50;;;;;;5073648;28;20046;-73
2020/12/16 00:40:54;;;;;;;15.07;6.15;;;5.40;92.50;;;;;;5074003;28;20020;-74
2020/12/16 00:43:20;;;;;;;14.20;6.20;;;5.40;92.50;;;;;;5057612;28;20086;-73
2020/12/16 00:45:45;;;;;;;9.63;6.63;;;5.30;92.50;;;;;;5073991;28;20066;-73
2020/12/16 00:48:11;;;;;;;17.42;6.18;;;5.30;92.50;;;;;;5074440;28;20039;-74
2020/12/16 00:50:37;;;;;;;18.83;6.75;;;5.30;92.50;;;;;;5092166;28;20039;-73
2020/12/16 00:53:02;;;;;;;7.05;5.82;;;5.30;92.40;;;;;;5092392;28;20020;-73
2020/12/16 00:55:28;;;;;;;12.15;6.50;;;5.30;92.40;;;;;;5074303;28;20028;-74
2020/12/16 00:57:55;;;;;;;8.50;6.53;;;5.30;92.40;;;;;;5074097;28;20465;-74
2020/12/16 01:00:21;;;;;;;17.33;7.22;;;5.30;92.40;;;;;;5090088;28;20050;-73
2020/12/16 01:02:47;;;;;;;19.02;6.90;;;5.30;92.70;;;;;;5073944;28;20040;-73
2020/12/16 01:05:15;;;;;;;12.95;6.70;;;5.20;92.40;;;;;;5074109;28;20507;-73
2020/12/16 01:07:41;;;;;;;8.02;7.03;;;5.30;92.50;;;;;;5092226;28;20028;-73
2020/12/16 01:10:08;;;;;;;14.95;7.32;;;5.30;92.50;;;;;;5073972;28;20024;-73
2020/12/16 01:12:38;;;;;;;8.60;7.28;;;5.20;92.50;;;;;;5073730;28;20055;-74
2020/12/16 01:15:10;;;;;;;14.40;8.02;;;5.20;92.50;;;;;;5073902;28;20111;-74
2020/12/16 01:17:40;;;;;;;11.38;8.25;;;5.30;92.50;;;;;;5072430;28;20483;-74
2020/12/16 01:20:08;;;;;;;19.10;9.30;;;5.30;92.60;;;;;;5074143;28;20024;-74
2020/12/16 01:22:41;;;;;;;15.88;8.52;;;5.30;92.60;;;;;;5071283;28;20499;-74
2020/12/16 01:25:07;;;;;;;31.38;9.10;;;5.40;92.60;;;;;;5056746;28;20032;-74
2020/12/16 01:27:33;;;;;;;13.68;8.13;;;5.30;92.60;;;;;;5056566;28;20047;-74
2020/12/16 01:29:59;;;;;;;25.83;8.68;;;5.40;92.70;;;;;;5073413;28;20024;-75
2020/12/16 01:32:25;;;;;;;22.08;8.95;;;5.40;92.70;;;;;;5056273;28;20480;-75
2020/12/16 01:34:51;;;;;;;21.98;8.32;;;5.40;92.70;;;;;;5073017;28;20035;-74
2020/12/16 01:37:17;;;;;;;12.35;7.82;;;5.40;92.70;;;;;;5072631;28;20028;-74
2020/12/16 01:39:42;;;;;;;9.98;8.43;;;5.40;92.70;;;;;;5073465;28;20031;-79
2020/12/16 01:42:08;;;;;;;11.18;8.32;;;5.40;92.70;;;;;;5092571;28;20024;-79
2020/12/16 01:44:33;;;;;;;13.65;9.15;;;5.50;92.80;;;;;;5092587;28;20388;-78
2020/12/16 01:47:01;;;;;;;13.35;9.45;;;5.50;92.80;;;;;;5057916;28;20024;-78
2020/12/16 01:49:27;;;;;;;11.38;9.43;;;5.50;92.90;;;;;;5092803;28;20101;-78
2020/12/16 01:51:58;;;;;;;13.70;9.95;;;5.50;92.90;;;;;;5092195;28;20076;-78
2020/12/16 01:54:25;;;;;;;11.90;9.23;;;5.50;92.90;;;;;;5076638;28;20059;-79
2020/12/16 01:56:54;;;;;;;11.40;9.00;;;5.50;92.90;;;;;;5096283;28;20024;-78
2020/12/16 01:59:21;;;;;;;12.68;10.52;;;5.50;92.90;;;;;;5096406;28;20406;-79
2020/12/16 02:01:52;;;;;;;12.02;9.57;;;5.50;92.90;;;;;;5078295;28;20133;-79
2020/12/16 02:04:22;;;;;;;11.45;9.43;;;5.50;92.90;;;;;;5079750;28;20017;-78
2020/12/16 02:06:52;;;;;;;10.93;8.88;;;5.50;93.00;;;;;;5096056;28;20488;-79
2020/12/16 02:09:20;;;;;;;12.55;10.15;;;5.50;93.00;;;;;;5078305;28;20032;-79
2020/12/16 02:11:47;;;;;;;13.40;9.93;;;5.50;93.00;;;;;;5095921;28;20039;-78
2020/12/16 02:14:12;;;;;;;12.68;10.30;;;5.50;93.00;;;;;;5095991;28;20422;-79
2020/12/16 02:16:39;;;;;;;12.70;10.25;;;5.40;93.00;;;;;;5095720;28;20103;-78
2020/12/16 02:19:07;;;;;;;12.98;10.60;;;5.40;93.00;;;;;;5077319;28;20027;-79
2020/12/16 02:21:34;;;;;;;13.98;10.50;;;5.40;93.10;;;;;;5094538;28;20077;-79
2020/12/16 02:24:12;;;;;;;12.63;10.23;;;5.40;93.10;;;;;;5094520;28;20078;-79
2020/12/16 02:26:40;;;;;;;13.40;10.20;;;5.50;93.10;;;;;;5093733;28;20468;-79
2020/12/16 02:29:08;;;;;;;16.27;11.65;;;5.40;93.10;;;;;;5095425;28;20024;-79
2020/12/16 02:31:36;;;;;;;14.35;10.98;;;5.50;93.10;;;;;;5095233;28;20112;-78
2020/12/16 02:34:03;;;;;;;12.77;9.93;;;5.50;93.10;;;;;;5077675;28;20099;-78
2020/12/16 02:36:29;;;;;;;12.82;10.95;;;5.50;93.10;;;;;;5095501;28;20266;-79
2020/12/16 02:38:55;;;;;;;11.05;9.55;;;5.40;93.00;;;;;;5077414;28;20077;-79
2020/12/16 02:41:22;;;;;;;12.57;9.52;;;5.40;93.10;;;;;;5077209;28;20404;-78
2020/12/16 02:43:47;;;;;;;11.05;8.98;;;5.30;93.00;;;;;;5077240;28;20027;-78
2020/12/16 02:46:13;;;;;;;10.75;9.20;;;5.30;93.10;;;;;;5077270;28;21975;-78
2020/12/16 02:48:39;;;;;;;12.57;9.93;;;5.30;93.10;;;;;;5109353;28;20077;-78
2020/12/16 02:51:04;;;;;;;79.60;10.95;;;5.20;93.00;;;;;;5085447;28;20035;-79
2020/12/16 02:53:30;;;;;;;18.88;10.05;;;5.20;93.10;;;;;;5095168;28;20557;-78
2020/12/16 02:55:56;;;;;;;10.75;9.02;;;5.20;93.10;;;;;;5095302;28;20021;-78
2020/12/16 02:58:23;;;;;;;10.65;8.45;;;5.10;93.00;;;;;;5060533;28;20484;-78
2020/12/16 03:00:49;;;;;;;11.57;9.23;;;5.10;93.00;;;;;;5060488;28;20028;-78
2020/12/16 03:03:15;;;;;;;9.52;8.30;;;5.10;93.00;;;;;;5095176;28;20089;-78
2020/12/16 03:05:40;;;;;;;9.80;8.05;;;5.10;93.00;;;;;;5094765;28;20488;-78
2020/12/16 03:08:09;;;;;;;17.30;8.70;;;5.10;93.00;;;;;;5076851;28;20043;-78
2020/12/16 03:10:35;;;;;;;79.03;9.93;;;5.00;92.90;;;;;;5072361;28;20124;-78
2020/12/16 03:13:00;;;;;;;10.13;7.90;;;5.00;92.80;;;;;;5076330;28;20487;-78
2020/12/16 03:15:26;;;;;;;10.02;8.27;;;4.90;92.80;;;;;;5076271;28;20031;-78
2020/12/16 03:17:52;;;;;;;10.13;8.45;;;4.90;92.90;;;;;;5075984;28;20126;-79
2020/12/16 03:20:17;;;;;;;11.13;8.82;;;4.90;92.90;;;;;;5075572;28;20110;-74
2020/12/16 03:22:43;;;;;;;10.38;8.77;;;4.90;92.90;;;;;;5074920;28;20110;-74
2020/12/16 03:25:08;;;;;;;11.38;8.73;;;4.90;92.90;;;;;;5058041;28;20491;-74
2020/12/16 03:27:34;;;;;;;9.32;8.15;;;4.90;92.90;;;;;;5074873;28;20036;-74
2020/12/16 03:29:59;;;;;;;10.25;8.15;;;4.80;92.90;;;;;;5074996;28;20044;-73
2020/12/16 03:32:25;;;;;;;10.68;8.25;;;4.80;92.90;;;;;;5074663;28;20039;-74
2020/12/16 03:34:51;;;;;;;10.98;9.35;;;4.80;92.80;;;;;;5074802;28;20024;-74
2020/12/16 03:37:16;;;;;;;10.93;9.45;;;4.80;92.80;;;;;;5074602;28;20028;-74
2020/12/16 03:39:42;;;;;;;11.77;8.88;;;4.70;92.80;;;;;;5093559;28;20060;-78
2020/12/16 03:42:08;;;;;;;10.85;9.68;;;4.80;92.80;;;;;;5059875;28;20036;-78
2020/12/16 03:44:33;;;;;;;10.30;8.60;;;4.80;92.90;;;;;;5068500;28;20028;-78
2020/12/16 03:46:59;;;;;;;9.90;8.25;;;4.80;92.80;;;;;;5059419;28;20035;-78
2020/12/16 03:49:25;;;;;;;8.68;7.45;;;4.70;92.70;;;;;;5076121;28;20141;-79
2020/12/16 03:51:52;;;;;;;9.00;7.40;;;4.70;92.60;;;;;;5093680;28;20036;-78
2020/12/16 03:54:17;;;;;;;13.68;8.57;;;4.60;92.60;;;;;;5093923;28;20541;-79
2020/12/16 03:56:43;;;;;;;9.45;7.88;;;4.60;92.60;;;;;;5055952;28;20032;-78
2020/12/16 03:59:08;;;;;;;8.88;7.50;;;4.60;92.60;;;;;;5089742;28;20033;-79
2020/12/16 04:01:34;;;;;;;9.60;8.13;;;4.60;92.60;;;;;;5078733;28;20488;-78
2020/12/16 04:04:02;;;;;;;10.82;8.55;;;4.50;92.60;;;;;;5093952;28;20028;-78
2020/12/16 04:06:28;;;;;;;10.00;7.90;;;4.60;92.70;;;;;;5075409;28;20468;-78
2020/12/16 04:08:54;;;;;;;10.82;8.38;;;4.50;92.60;;;;;;5075921;28;20270;-78
2020/12/16 04:11:20;;;;;;;11.57;8.65;;;4.50;92.60;;;;;;5075668;28;20767;-78
2020/12/16 04:13:46;;;;;;;11.50;9.05;;;4.50;92.60;;;;;;5076020;28;20035;-78
2020/12/16 04:16:17;;;;;;;10.63;8.68;;;4.50;92.60;;;;;;5093184;28;20059;-78
2020/12/16 04:18:42;;;;;;;18.23;9.15;;;4.50;92.50;;;;;;5075421;28;20031;-79
2020/12/16 04:21:09;;;;;;;11.80;9.55;;;4.50;92.50;;;;;;5093469;28;20032;-78
2020/12/16 04:23:35;;;;;;;11.45;9.02;;;4.50;92.50;;;;;;5093631;28;20460;-78
2020/12/16 04:26:01;;;;;;;12.75;10.00;;;4.50;92.50;;;;;;5075635;28;20483;-78
2020/12/16 04:28:28;;;;;;;11.90;9.35;;;4.50;92.60;;;;;;5075233;28;20072;-79
2020/12/16 04:30:54;;;;;;;11.48;9.35;;;4.50;92.60;;;;;;5075128;28;20403;-79
2020/12/16 04:33:19;;;;;;;10.95;9.10;;;4.50;92.60;;;;;;5078774;28;20032;-78
2020/12/16 04:35:46;;;;;;;12.23;9.57;;;4.50;92.60;;;;;;5038718;28;20028;-78
2020/12/16 04:38:11;;;;;;;11.05;9.63;;;4.50;92.60;;;;;;5091974;28;20016;-78
2020/12/16 04:40:37;;;;;;;11.70;9.55;;;4.50;92.50;;;;;;5092490;28;20103;-78
2020/12/16 04:43:08;;;;;;;10.85;8.85;;;4.50;92.50;;;;;;5094446;28;20028;-78
2020/12/16 04:45:38;;;;;;;11.10;8.82;;;4.50;92.50;;;;;;5075254;28;20019;-78
2020/12/16 04:48:05;;;;;;;10.20;8.40;;;4.40;92.50;;;;;;5075298;28;20032;-78
2020/12/16 04:50:31;;;;;;;11.90;9.48;;;4.40;92.50;;;;;;5074914;28;20023;-78
2020/12/16 04:53:08;;;;;;;11.00;9.25;;;4.40;92.50;;;;;;5093064;28;20124;-78
2020/12/16 04:55:33;;;;;;;11.50;9.07;;;4.40;92.50;;;;;;5088269;28;20089;-78
2020/12/16 04:58:01;;;;;;;11.90;9.68;;;4.40;92.50;;;;;;5092453;28;20023;-78
2020/12/16 05:00:28;;;;;;;15.10;9.65;;;4.40;92.50;;;;;;5074186;28;20438;-78
2020/12/16 05:02:55;;;;;;;13.32;9.82;;;4.40;92.50;;;;;;5089879;28;20024;-74
2020/12/16 05:05:22;;;;;;;12.57;9.90;;;4.30;92.50;;;;;;5073854;28;20028;-74
2020/12/16 05:07:48;;;;;;;12.90;10.05;;;4.30;92.50;;;;;;5074005;28;20028;-74
2020/12/16 05:10:32;;;;;;;11.50;9.85;;;4.30;92.60;;;;;;5074120;28;20051;-74
2020/12/16 05:13:05;;;;;;;12.05;9.57;;;4.30;92.60;;;;;;5089118;28;20036;-74
2020/12/16 05:15:32;;;;;;;13.75;10.77;;;4.30;92.60;;;;;;5073818;28;20031;-75
2020/12/16 05:18:18;;;;;;;13.52;9.18;;;4.30;92.60;;;;;;5091894;28;20020;-74
2020/12/16 05:20:45;;;;;;;12.88;10.02;;;4.30;92.60;;;;;;5091845;28;20027;-74
2020/12/16 05:23:12;;;;;;;16.23;10.98;;;4.30;92.60;;;;;;5091892;28;20024;-74
2020/12/16 05:25:38;;;;;;;11.27;9.70;;;4.30;92.60;;;;;;5073829;28;20502;-74
2020/12/16 05:28:05;;;;;;;12.48;8.68;;;4.30;92.50;;;;;;5091649;28;20097;-74
2020/12/16 05:30:31;;;;;;;11.43;8.77;;;4.20;92.40;;;;;;5095660;28;20020;-74
2020/12/16 05:33:00;;;;;;;9.70;8.57;;;4.20;92.40;;;;;;5096030;28;20574;-74
2020/12/16 05:35:29;;;;;;;10.88;7.65;;;4.20;92.40;;;;;;5076921;28;20036;-75
2020/12/16 05:38:06;;;;;;;9.02;7.10;;;4.10;92.30;;;;;;5075692;28;20419;-75
2020/12/16 05:40:38;;;;;;;7.82;7.03;;;4.10;92.40;;;;;;5099136;28;20020;-74
2020/12/16 05:43:04;;;;;;;8.80;7.22;;;4.10;92.40;;;;;;5088288;28;20028;-74
2020/12/16 05:45:37;;;;;;;9.52;7.75;;;4.10;92.40;;;;;;5106053;28;20036;-74
2020/12/16 05:48:11;;;;;;;9.65;7.80;;;4.00;92.40;;;;;;5091669;28;20020;-74
2020/12/16 05:50:43;;;;;;;8.73;6.80;;;4.00;92.50;;;;;;5077644;28;20388;-74
2020/12/16 05:53:12;;;;;;;8.38;7.47;;;4.00;92.40;;;;;;5094289;28;20097;-75
2020/12/16 05:55:38;;;;;;;6.90;6.20;;;4.00;92.30;;;;;;5076984;28;20382;-74
2020/12/16 05:58:07;;;;;;;10.02;6.60;;;4.00;92.30;;;;;;5094979;28;20024;-74
2020/12/16 06:01:03;;;;;;;7.55;6.65;;;3.90;92.30;;;;;;5094595;28;20536;-74
2020/12/16 06:03:30;;;;;;;8.13;6.63;;;3.90;92.30;;;;;;5064168;28;20064;-75
2020/12/16 06:05:58;;;;;;;7.80;6.35;;;3.80;92.20;;;;;;5103592;28;20020;-74
2020/12/16 06:08:30;;;;;;;6.93;5.70;;;3.80;92.20;;;;;;5106089;28;20357;-74
2020/12/16 06:10:56;;;;;;;9.18;6.35;;;3.80;92.20;;;;;;5093392;28;20035;-74
2020/12/16 06:13:22;;;;;;;6.60;5.90;;;3.70;92.20;;;;;;5076757;28;20094;-74
2020/12/16 06:15:57;;;;;;;8.88;6.22;;;3.70;92.20;;;;;;5095123;28;20384;-75
2020/12/16 06:18:27;;;;;;;9.63;6.28;;;3.70;92.20;;;;;;5100975;28;20047;-74
2020/12/16 06:20:54;;;;;;;9.80;7.47;;;3.70;92.30;;;;;;5094272;28;20027;-74
2020/12/16 06:23:34;;;;;;;9.68;7.07;;;3.70;92.30;;;;;;5076190;28;20494;-74
2020/12/16 06:26:01;;;;;;;9.38;7.72;;;3.60;92.30;;;;;;5076740;28;20056;-74
2020/12/16 06:28:27;;;;;;;9.63;7.00;;;3.70;92.40;;;;;;5094251;28;20093;-74
2020/12/16 06:31:11;;;;;;;10.65;7.90;;;3.70;92.40;;;;;;5094089;28;20040;-74
2020/12/16 06:34:00;;;;;;;11.07;8.30;;;3.70;92.40;;;;;;5093626;28;20020;-74
2020/12/16 06:36:38;;;;;;;10.90;8.52;;;3.70;92.40;;;;;;5094069;28;20024;-75
2020/12/16 06:39:14;;;;;;;11.55;8.38;;;3.70;92.40;;;;;;5092159;28;20451;-74
2020/12/16 06:41:54;;;;;;;12.68;9.00;;;3.80;92.50;;;;;;5076337;28;20539;-74
2020/12/16 06:44:21;;;;;;;12.75;9.93;;;3.80;92.50;;;;;;5075730;28;20024;-75
2020/12/16 06:46:49;;;;;;;12.43;9.85;;;3.80;92.40;;;;;;5060055;28;20024;-78
2020/12/16 06:49:23;;;;;;;15.48;10.85;;;3.80;92.40;;;;;;5094908;28;20024;-78
2020/12/16 06:51:55;;;;;;;15.27;10.82;;;3.90;92.50;;;;;;5076159;28;20480;-77
2020/12/16 06:54:23;;;;;;;13.50;9.45;;;3.90;92.50;;;;;;5074884;28;20042;-78
2020/12/16 06:57:09;;;;;;;12.77;9.90;;;3.90;92.50;;;;;;5095375;28;20012;-77
2020/12/16 06:59:45;;;;;;;12.63;9.40;;;4.00;92.50;;;;;;5094624;28;20021;-77
2020/12/16 07:02:14;;;;;;;13.75;9.60;;;4.10;92.60;;;;;;5091210;28;20020;-77
2020/12/16 07:04:40;;;;;;;18.95;10.88;;;4.10;92.50;;;;;;5078590;28;20384;-77
2020/12/16 07:07:05;;;;;;;13.50;10.23;;;4.10;92.60;;;;;;5095381;28;20028;-77
2020/12/16 07:09:34;;;;;;;10.48;9.02;;;4.10;92.60;;;;;;5095134;28;20090;-77
2020/12/16 07:12:01;;;;;;;14.23;10.57;;;4.10;92.60;;;;;;5076719;28;20032;-77
2020/12/16 07:14:34;;;;;;;10.75;8.40;;;4.10;92.60;;;;;;5076735;28;20039;-77
2020/12/16 07:17:10;;;;;;;14.18;9.40;;;4.10;92.60;;;;;;5094607;28;20070;-77
2020/12/16 07:19:37;;;;;;;12.63;9.27;;;4.10;92.60;;;;;;5090834;28;20028;-77
2020/12/16 07:22:22;;;;;;;13.98;10.38;;;4.10;92.60;;;;;;5076477;28;20107;-77
2020/12/16 07:24:49;;;;;;;14.60;10.73;;;4.10;92.70;;;;;;5076316;28;20062;-77
2020/12/16 07:27:25;;;;;;;17.55;11.10;;;4.10;92.70;;;;;;5071201;28;20028;-77
2020/12/16 07:29:54;;;;;;;16.38;10.55;;;4.20;92.80;;;;;;5076645;28;20082;-77
2020/12/16 07:32:22;;;;;;;17.15;11.32;;;4.20;92.70;;;;;;5092641;28;20071;-74
2020/12/16 07:34:59;;;;;;;13.70;9.55;;;4.20;92.80;;;;;;5093558;28;20024;-74
2020/12/16 07:37:31;;;;;;;12.40;9.50;;;4.30;92.80;;;;;;5072657;28;20025;-74
2020/12/16 07:40:10;;;;;;;14.88;10.45;;;4.30;92.80;;;;;;5070372;28;20108;-74
2020/12/16 07:42:36;;;;;;;13.13;9.95;;;4.40;92.90;;;;;;5071770;28;20147;-74
2020/12/16 07:45:05;;;;;;;16.75;10.88;;;4.40;92.80;;;;;;5090995;28;20032;-74
2020/12/16 07:47:31;;;;;;;16.35;9.55;;;4.40;92.90;;;;;;5094673;28;20028;-74
2020/12/16 07:49:57;;;;;;;14.18;9.73;;;4.50;92.90;;;;;;5094783;28;20077;-73
2020/12/16 07:52:27;;;;;;;14.80;9.85;;;4.50;93.20;;;;;;5058335;28;20545;-73
2020/12/16 07:54:54;;;;;;;16.33;10.10;;;4.50;92.90;;;;;;5091504;28;20024;-73
2020/12/16 07:57:30;;;;;;;13.63;10.25;;;4.50;92.90;;;;;;5074985;28;20021;-73
2020/12/16 07:59:56;;;;;;;14.45;9.02;;;4.60;93.00;;;;;;5093538;28;20035;-73
2020/12/16 08:02:21;;;;;;;14.23;9.35;;;4.60;92.90;;;;;;5075184;28;20032;-73
2020/12/16 08:04:55;;;;;;;12.68;8.85;;;4.60;92.90;;;;;;5093183;28;20060;-74
2020/12/16 08:07:21;;;;;;;15.25;10.60;;;4.60;93.00;;;;;;5075055;28;20060;-74
2020/12/16 08:09:54;;;;;;;15.30;9.50;;;4.70;92.90;;;;;;5093425;28;20058;-74
2020/12/16 08:12:25;;;;;;;13.68;9.98;;;4.70;93.00;;;;;;5090453;28;20035;-74
2020/12/16 08:15:10;;;;;;;12.43;9.35;;;4.80;93.00;;;;;;5073863;28;20024;-74
2020/12/16 08:17:40;;;;;;;11.68;9.07;;;4.80;93.00;;;;;;5074017;28;20024;-74
2020/12/16 08:20:19;;;;;;;13.35;10.02;;;4.80;93.00;;;;;;5072834;28;20016;-74
2020/12/16 08:22:50;;;;;;;20.15;11.82;;;4.90;93.10;;;;;;5057873;28;20069;-74
2020/12/16 08:25:18;;;;;;;14.25;10.18;;;4.90;93.10;;;;;;5073932;28;20039;-74
2020/12/16 08:27:51;;;;;;;13.82;10.07;;;4.90;93.10;;;;;;5092251;28;20462;-74
2020/12/16 08:30:19;;;;;;;14.75;10.65;;;4.90;93.10;;;;;;5070425;28;20073;-74
2020/12/16 08:33:13;;;;;;;12.95;10.38;;;4.90;93.10;;;;;;5074309;28;20066;-74
2020/12/16 08:35:50;;;;;;;14.77;10.65;;;5.00;93.20;;;;;;5090518;28;20016;-74
2020/12/16 08:38:30;;;;;;;15.25;10.15;;;5.10;93.10;;;;;;5090712;28;20467;-74
2020/12/16 08:40:57;;;;;;;14.68;10.40;;;5.10;93.10;;;;;;5073463;28;20024;-74
2020/12/16 08:43:35;;;;;;;13.50;10.20;;;5.10;93.10;;;;;;5058299;28;20500;-74
2020/12/16 08:46:04;;;;;;;14.05;10.50;;;5.20;93.10;;;;;;5074558;28;20032;-74
2020/12/16 08:48:41;;;;;;;10.88;7.82;;;5.20;93.10;;;;;;5074762;28;20488;-74
2020/12/16 08:51:09;;;;;;;18.13;10.88;;;5.20;93.10;;;;;;5090115;28;20058;-73
2020/12/16 08:53:56;;;;;;;15.95;10.40;;;5.20;93.10;;;;;;5087352;28;20044;-74
2020/12/16 08:56:23;;;;;;;15.82;10.45;;;5.30;93.20;;;;;;5087313;28;20032;-74
2020/12/16 08:58:59;;;;;;;15.88;11.15;;;5.30;93.20;;;;;;5103701;28;20024;-74
2020/12/16 09:01:25;;;;;;;14.30;10.20;;;5.40;93.30;;;;;;5070553;28;20024;-73
2020/12/16 09:03:52;;;;;;;15.10;9.57;;;5.40;93.20;;;;;;5086312;28;20464;-74
2020/12/16 09:06:17;;;;;;;14.93;10.93;;;5.40;93.20;;;;;;5084138;28;20038;-74
2020/12/16 09:08:43;;;;;;;14.88;10.65;;;5.40;93.20;;;;;;5071062;28;20035;-74
2020/12/16 09:11:09;;;;;;;14.35;10.63;;;5.50;93.20;;;;;;5081635;28;20119;-74
2020/12/16 09:13:34;;;;;;;14.57;9.90;;;5.60;93.20;;;;;;5082074;28;20036;-73
2020/12/16 09:16:00;;;;;;;15.50;10.68;;;5.60;93.20;;;;;;5072023;28;20032;-73
2020/12/16 09:18:28;;;;;;;14.05;10.20;;;5.60;93.20;;;;;;5054228;28;20047;-73
2020/12/16 09:20:54;;;;;;;13.07;10.07;;;5.60;93.20;;;;;;5087936;28;20070;-81
2020/12/16 09:23:24;;;;;;;14.20;11.13;;;5.70;93.20;;;;;;5087031;28;20033;-81
2020/12/16 09:25:51;;;;;;;16.80;11.38;;;5.70;93.20;;;;;;5059247;28;20028;-81
2020/12/16 09:28:17;;;;;;;17.30;10.82;;;5.80;93.30;;;;;;5092645;28;20055;-81
2020/12/16 09:30:43;;;;;;;15.43;11.27;;;5.80;93.30;;;;;;5057335;28;20456;-81
2020/12/16 09:33:16;;;;;;;16.77;12.50;;;5.80;93.20;;;;;;5092540;28;20047;-81
2020/12/16 09:35:42;;;;;;;18.65;12.10;;;5.90;93.30;;;;;;5057144;28;20025;-81
2020/12/16 09:38:16;;;;;;;19.20;13.15;;;5.90;93.30;;;;;;5056538;28;20070;-81
2020/12/16 09:40:42;;;;;;;18.25;13.48;;;6.00;93.30;;;;;;5092420;28;20156;-81
2020/12/16 09:43:10;;;;;;;19.90;14.20;;;6.10;93.30;;;;;;5092470;28;20074;-81
2020/12/16 09:45:38;;;;;;;17.10;12.60;;;6.10;93.30;;;;;;5092266;28;20028;-81
2020/12/16 09:48:04;;;;;;;17.02;13.10;;;6.10;93.30;;;;;;5092461;28;20020;-81
2020/12/16 09:50:34;;;;;;;16.00;11.27;;;6.20;93.30;;;;;;5092294;28;20035;-75
2020/12/16 09:53:10;;;;;;;19.10;12.32;;;6.20;93.30;;;;;;5074793;28;20048;-80
2020/12/16 09:55:37;;;;;;;17.83;12.20;;;6.30;93.30;;;;;;5092631;28;20476;-79
2020/12/16 09:58:08;;;;;;;18.23;11.90;;;6.40;93.30;;;;;;5074537;28;20032;-79
2020/12/16 10:00:36;;;;;;;21.98;13.30;;;6.40;93.30;;;;;;5093050;28;20020;-79
2020/12/16 10:03:10;;;;;;;19.48;14.07;;;6.50;93.30;;;;;;5074776;28;20020;-79
2020/12/16 10:05:38;;;;;;;14.82;11.77;;;6.50;93.30;;;;;;5074305;28;20073;-79
2020/12/16 10:08:07;;;;;;;17.27;12.95;;;6.60;93.30;;;;;;5092888;28;20380;-79
2020/12/16 10:10:33;;;;;;;19.08;12.80;;;6.60;93.20;;;;;;5092871;28;20021;-79
2020/12/16 10:12:59;;;;;;;19.55;12.82;;;6.70;93.20;;;;;;5093387;28;20064;-79
2020/12/16 10:15:24;;;;;;;17.05;12.23;;;6.70;93.20;;;;;;5095361;28;20020;-79
2020/12/16 10:17:50;;;;;;;19.45;12.63;;;6.80;93.20;;;;;;5078694;28;20027;-79
2020/12/16 10:20:16;;;;;;;17.30;12.75;;;6.80;93.10;;;;;;5078757;28;20028;-79
2020/12/16 10:22:42;;;;;;;15.52;11.07;;;6.80;93.10;;;;;;5096641;28;20027;-79
2020/12/16 10:25:08;;;;;;;15.15;11.35;;;6.90;93.20;;;;;;5096230;28;20106;-74
2020/12/16 10:27:34;;;;;;;17.02;11.45;;;6.90;93.10;;;;;;5078150;28;20052;-74
2020/12/16 10:30:00;;;;;;;17.15;11.50;;;7.00;93.20;;;;;;5061482;28;20388;-73
2020/12/16 10:32:29;;;;;;;14.43;11.63;;;7.00;93.10;;;;;;5077859;28;20502;-73
2020/12/16 10:34:54;;;;;;;15.07;11.88;;;7.10;93.10;;;;;;5078041;28;20031;-74
2020/12/16 10:37:25;;;;;;;16.20;11.40;;;7.10;93.10;;;;;;5077960;28;20029;-74
2020/12/16 10:39:51;;;;;;;14.32;10.65;;;7.20;93.10;;;;;;5095714;28;20024;-74
2020/12/16 10:42:17;;;;;;;13.95;11.15;;;7.20;93.10;;;;;;5061163;28;20105;-75
2020/12/16 10:44:43;;;;;;;13.02;10.27;;;7.30;93.10;;;;;;5095845;28;20107;-75
2020/12/16 10:47:09;;;;;;;18.00;13.00;;;7.30;93.10;;;;;;5077153;28;20495;-75
2020/12/16 10:49:35;;;;;;;19.27;11.20;;;7.40;93.10;;;;;;5095877;28;20182;-75
2020/12/16 10:52:07;;;;;;;14.73;11.20;;;7.40;93.10;;;;;;5095499;28;20417;-75
2020/12/16 10:54:33;;;;;;;14.35;11.13;;;7.50;93.10;;;;;;5095932;28;20021;-75
2020/12/16 10:56:58;;;;;;;14.00;10.68;;;7.60;93.10;;;;;;5095946;28;20051;-75
2020/12/16 10:59:25;;;;;;;13.73;10.13;;;7.60;93.10;;;;;;5095882;28;20032;-75
2020/12/16 11:01:51;;;;;;;15.75;10.32;;;7.60;93.10;;;;;;5095634;28;20027;-75
2020/12/16 11:04:17;;;;;;;16.40;10.40;;;7.70;93.00;;;;;;5077663;28;20028;-75
2020/12/16 11:06:45;;;;;;;16.23;11.50;;;7.80;93.00;;;;;;5095737;28;20357;-75
2020/12/16 11:09:11;;;;;;;12.85;9.70;;;7.90;93.00;;;;;;5077411;28;20102;-75
2020/12/16 11:11:45;;;;;;;14.05;10.23;;;7.90;93.20;;;;;;5077383;28;20036;-75
2020/12/16 11:14:11;;;;;;;12.43;9.65;;;8.00;93.00;;;;;;5077661;28;20028;-75
2020/12/16 11:16:37;;;;;;;13.40;9.27;;;8.00;92.90;;;;;;5095449;28;20013;-76
2020/12/16 11:19:04;;;;;;;13.38;10.13;;;8.00;92.80;;;;;;5111159;28;20119;-75
2020/12/16 11:21:40;;;;;;;14.73;9.90;;;8.10;92.80;;;;;;5077374;28;20543;-75
2020/12/16 11:24:07;;;;;;;14.80;10.35;;;8.20;92.80;;;;;;5095380;28;20055;-75
2020/12/16 11:26:37;;;;;;;16.50;12.48;;;8.30;92.70;;;;;;5095612;28;20523;-75
2020/12/16 11:29:03;;;;;;;17.05;11.48;;;8.30;92.70;;;;;;5095056;28;20036;-75
2020/12/16 11:31:29;;;;;;;13.20;10.05;;;8.40;92.70;;;;;;5076830;28;20031;-75
2020/12/16 11:33:54;;;;;;;12.68;10.40;;;8.50;92.70;;;;;;5077024;28;20036;-75
2020/12/16 11:36:20;;;;;;;15.68;10.32;;;8.50;92.60;;;;;;5094841;28;20032;-76
2020/12/16 11:38:45;;;;;;;12.20;9.70;;;8.50;92.50;;;;;;5076843;28;20102;-75
2020/12/16 11:41:11;;;;;;;14.05;9.57;;;8.60;92.60;;;;;;5060146;28;20028;-75
2020/12/16 11:43:37;;;;;;;15.32;10.93;;;8.70;92.50;;;;;;5077210;28;20043;-75
2020/12/16 11:46:02;;;;;;;14.43;10.43;;;8.70;92.50;;;;;;5076907;28;20035;-76
2020/12/16 11:48:28;;;;;;;16.23;11.70;;;8.70;92.50;;;;;;5094889;28;20111;-75
2020/12/16 11:50:53;;;;;;;16.25;11.30;;;8.80;92.50;;;;;;5076350;28;20031;-75
2020/12/16 11:53:19;;;;;;;15.95;10.45;;;8.80;92.80;;;;;;5094616;28;20052;-75
2020/12/16 11:55:45;;;;;;;15.98;10.98;;;8.80;92.50;;;;;;5094779;28;20052;-75
2020/12/16 11:58:10;;;;;;;20.40;12.07;;;8.80;92.60;;;;;;5057520;28;20517;-76
2020/12/16 12:00:36;;;;;;;15.75;11.70;;;8.80;92.60;;;;;;5076350;28;20028;-76
2020/12/16 12:03:02;;;;;;;17.95;11.25;;;8.80;92.60;;;;;;5094221;28;20024;-75
2020/12/16 12:05:27;;;;;;;17.40;12.05;;;8.90;92.70;;;;;;5056405;28;20028;-75
2020/12/16 12:07:53;;;;;;;18.30;11.30;;;9.00;92.70;;;;;;5058639;28;20028;-75
2020/12/16 12:10:19;;;;;;;14.10;10.60;;;9.00;92.60;;;;;;5059604;28;20120;-76
2020/12/16 12:12:44;;;;;;;17.98;11.82;;;9.20;92.30;;;;;;5075875;28;20105;-75
2020/12/16 12:15:11;;;;;;;15.55;11.20;;;9.40;92.10;;;;;;5094476;28;20046;-75
2020/12/16 12:17:37;;;;;;;20.73;10.75;;;9.80;91.50;;;;;;5076496;28;20031;-75
2020/12/16 12:20:04;;;;;;;13.10;10.35;;;10.20;90.80;;;;;;5075969;28;20402;-76
2020/12/16 12:22:29;;;;;;;15.30;11.25;;;10.30;90.70;;;;;;5076243;28;20468;-75
2020/12/16 12:25:16;;;;;;;15.55;10.70;;;10.40;90.60;;;;;;5032140;28;20131;-75
2020/12/16 12:27:42;;;;;;;13.35;10.27;;;10.40;90.50;;;;;;5075417;28;20124;-75
2020/12/16 12:30:07;;;;;;;16.20;9.00;;;10.20;90.70;;;;;;5075687;28;20442;-75
2020/12/16 12:32:33;;;;;;;18.38;10.18;;;10.10;91.10;;;;;;5093591;28;20039;-75
2020/12/16 12:34:59;;;;;;;13.48;9.98;;;9.90;91.50;;;;;;5075888;28;20028;-75
2020/12/16 12:37:24;;;;;;;13.68;9.75;;;9.80;91.70;;;;;;5075180;28;20028;-75
2020/12/16 12:39:50;;;;;;;13.23;10.00;;;9.70;91.90;;;;;;5075673;28;20028;-76
2020/12/16 12:42:16;;;;;;;14.27;10.80;;;9.60;92.10;;;;;;5089149;28;20461;-75
2020/12/16 12:44:42;;;;;;;14.88;11.18;;;9.60;92.20;;;;;;5093610;28;20028;-76
2020/12/16 12:47:08;;;;;;;15.50;10.90;;;9.60;92.30;;;;;;5075282;28;20036;-75
2020/12/16 12:49:34;;;;;;;20.15;11.90;;;9.50;92.40;;;;;;5093612;28;20034;-75